Welcome to our new website - Welkom op onze vernieuwde website - Bienvenue sur notre nouveau site web - Willkommen auf unserer neuen Website
Check our progress frequently. Prüfen Sie unsere Fortschritte regelmäßig. Consultez notre progression fréquemment. Komt u straks nog eens terug


Bezoek onze andere website:

Template documentation
and downloads

And another site



METAR rapporten vliegvelden

   
EBBR - Brussels International Airport, Belgium
Afstand tot: W 14 km
Gewijzigd: Jun 17 2019 8:50 pm
Helder  
Helder  
   Wind: NNW 6 km/h
Wind: NNW 6 km/h
Temperatuur: 22°C
Dauwpunt: 14°C
Vochtigheid: 61%
Barometer: 1017 hPa
Zicht: meer dan 10 km
Bewolking: Helder
EBBR 171850Z 34003KT 310V010 CAVOK 22/14 Q1017 NOSIG
EBBE - Beauvechain (Bevekom), Belgium
Afstand tot: ZZO 17 km
Gewijzigd: Jun 17 2019 8:55 pm
Helder  
Helder  
   Wind: varieert 4 km/h
Wind: varieert 4 km/h
Temperatuur: 24°C
Dauwpunt: 13°C
Vochtigheid: 50%
Barometer: 1017 hPa
Bewolking: Helder
Zicht: meer dan 10 km
Bewolking: Helder
EBBE 171855Z AUTO VRB02KT 9999 NCD 24/13 Q1017 BLU
EBDT - Schaffen, Belgium
Afstand tot: ONO 29 km
Gewijzigd: Jun 17 2019 8:55 pm
Licht bewolkt  
Licht bewolkt  
   Wind: varieert 2 km/h
Wind: varieert 2 km/h
Temperatuur: 25°C
Dauwpunt: 12°C
Vochtigheid: 44%
Barometer: 1017 hPa
Bewolking: Licht bewolkt
Zicht: meer dan 10 km
Bewolking: Licht bewolkt 7924.8 m
EBDT 171855Z VRB01KT 9999 FEW260 25/12 Q1017 BLU BLU
EBAW - Antwerp/Deurne, Belgium
Afstand tot: NNW 38 km
Gewijzigd: Jun 17 2019 8:50 pm
Helder  
Helder  
   Wind: ZW 9 km/h
Wind: ZW 9 km/h
Temperatuur: 24°C
Dauwpunt: 12°C
Vochtigheid: 47%
Barometer: 1017 hPa
Zicht: meer dan 10 km
Bewolking: Helder
EBAW 171850Z 23005KT CAVOK 24/12 Q1017 NOSIG
EBCI - Charleroi/Gosselies, Belgium
Afstand tot: ZZW 51 km
Gewijzigd: Jun 17 2019 8:50 pm
Helder  
Helder  
   Wind: NW 6 km/h
Wind: NW 6 km/h
Temperatuur: 23°C
Dauwpunt: 13°C
Vochtigheid: 53%
Barometer: 1017 hPa
Zicht: meer dan 10 km
Bewolking: Helder
EBCI 171850Z 31003KT 260V360 CAVOK 23/13 Q1017 NOSIG
EBLG - Bierset/Liege, Belgium
Afstand tot: OZO 60 km
Gewijzigd: Jun 17 2019 8:50 pm
Helder  
Helder  
   Wind: Noorden 7 km/h
Wind: Noorden 7 km/h
Temperatuur: 23°C
Dauwpunt: 14°C
Vochtigheid: 57%
Barometer: 1017 hPa
Zicht: meer dan 10 km
Bewolking: Helder
EBLG 171850Z 36004KT CAVOK 23/14 Q1017 NOSIG

Script ontwikkeld door  Saratoga-weather.org Aangepast voor de template door  Weerstation Leuven

U vindt ons ook hier:

Het Weer Aktueel

UK Metoffice

European Weather Network

WeatherCloud

Weather Underground

AWEKAS

Apparatuur in gebruik:

Weerstation
Davis VP2

Weerprogramma
Meteobridge

Weercomputer
Tl-mr3020

Webleverancier
Robohost

Davis VP2

Meteobridge

Tl-mr3020

Robohost